Time;durP1;ratioP1;P1;durP2;ratioP2;P2;SDS_P1;SDS_P2;PMS_P1;PMS_P2;Temp;Humidity;BMP_temperature;BMP_pressure;BME280_temperature;BME280_humidity;BME280_pressure;Samples;Min_cycle;Max_cycle;Signal;HPM_P1;HPM_P2
2022/01/18 00:01:10;;;;;;;0.10;0.10;;;1.70;99.90;;;;;;4959775;28;20626;-75
2022/01/18 00:03:37;;;;;;;0.10;0.10;;;1.80;99.90;;;;;;4942057;28;20777;-76
2022/01/18 00:06:04;;;;;;;0.10;0.10;;;1.70;99.90;;;;;;4942681;28;20658;-75
2022/01/18 00:08:31;;;;;;;0.10;0.10;;;1.80;99.90;;;;;;4946232;28;20634;-75
2022/01/18 00:10:58;;;;;;;0.10;0.10;;;1.80;99.90;;;;;;4943950;28;20692;-75
2022/01/18 00:13:38;;;;;;;0.10;0.10;;;1.80;99.90;;;;;;4933188;28;20642;-75
2022/01/18 00:16:27;;;;;;;0.10;0.10;;;1.80;99.90;;;;;;4941722;28;20633;-75
2022/01/18 00:18:55;;;;;;;0.10;0.10;;;1.80;99.90;;;;;;4939307;28;20658;-75
2022/01/18 00:21:29;;;;;;;0.10;0.10;;;1.80;99.90;;;;;;4943179;28;20628;-75
2022/01/18 00:23:58;;;;;;;0.10;0.10;;;1.80;99.90;;;;;;4942340;28;21070;-75
2022/01/18 00:26:29;;;;;;;0.10;0.10;;;1.80;99.90;;;;;;4949690;28;20645;-75
2022/01/18 00:29:02;;;;;;;0.10;0.10;;;1.80;99.90;;;;;;4959975;28;20652;-75
2022/01/18 00:31:53;;;;;;;0.13;0.13;;;1.80;99.90;;;;;;4960463;28;20704;-75
2022/01/18 00:34:24;;;;;;;0.10;0.10;;;1.90;99.90;;;;;;4946059;28;20721;-75
2022/01/18 00:37:10;;;;;;;0.10;0.10;;;1.90;99.90;;;;;;4938247;28;20738;-75
2022/01/18 00:39:40;;;;;;;0.10;0.10;;;2.00;99.90;;;;;;4944235;28;20626;-75
2022/01/18 00:42:08;;;;;;;0.10;0.10;;;2.00;99.90;;;;;;4944329;28;20638;-75
2022/01/18 00:44:35;;;;;;;0.10;0.10;;;2.10;99.90;;;;;;4943513;28;20732;-75
2022/01/18 00:47:03;;;;;;;0.10;0.10;;;2.10;99.90;;;;;;4961297;28;20662;-75
2022/01/18 00:49:31;;;;;;;0.10;0.10;;;2.20;99.90;;;;;;4944545;28;20614;-75
2022/01/18 00:52:03;;;;;;;0.10;0.10;;;2.30;99.90;;;;;;4945303;28;20635;-75
2022/01/18 00:54:37;;;;;;;0.10;0.10;;;2.30;99.90;;;;;;4937746;28;21066;-75
2022/01/18 00:57:04;;;;;;;0.10;0.10;;;2.40;99.90;;;;;;4943074;28;20730;-75
2022/01/18 00:59:31;;;;;;;0.10;0.10;;;2.40;99.90;;;;;;4939640;28;20643;-75
2022/01/18 01:01:59;;;;;;;0.10;0.10;;;2.50;99.90;;;;;;4933488;28;20638;-75
2022/01/18 01:04:31;;;;;;;0.10;0.10;;;2.50;99.90;;;;;;4937933;28;20724;-75
2022/01/18 01:07:00;;;;;;;0.10;0.10;;;2.60;99.90;;;;;;4971406;28;20637;-76
2022/01/18 01:09:30;;;;;;;0.20;0.20;;;2.60;99.90;;;;;;4945172;28;20614;-76
2022/01/18 01:11:57;;;;;;;0.20;0.20;;;2.70;99.90;;;;;;4941067;28;20638;-76
2022/01/18 01:14:26;;;;;;;0.10;0.10;;;2.70;99.90;;;;;;4943288;28;20788;-76
2022/01/18 01:17:03;;;;;;;0.20;0.20;;;2.70;99.90;;;;;;4960958;28;20623;-75
2022/01/18 01:44:43;;;;;;;0.10;0.10;;;2.90;99.90;;;;;;4942123;28;20658;-74
2022/01/18 01:47:12;;;;;;;0.10;0.10;;;3.00;99.90;;;;;;4944712;28;20618;-75
2022/01/18 01:49:40;;;;;;;0.17;0.17;;;3.00;99.90;;;;;;4963214;28;20622;-75
2022/01/18 01:52:11;;;;;;;0.10;0.10;;;3.00;99.90;;;;;;4962850;28;20638;-75
2022/01/18 01:54:39;;;;;;;0.10;0.10;;;3.10;99.90;;;;;;4972543;28;20662;-75
2022/01/18 01:57:07;;;;;;;0.10;0.10;;;3.10;99.90;;;;;;4945951;28;20641;-75
2022/01/18 01:59:34;;;;;;;0.13;0.13;;;3.10;99.90;;;;;;4944157;28;20670;-75
2022/01/18 02:02:05;;;;;;;0.10;0.10;;;3.10;99.90;;;;;;4948018;28;20624;-76
2022/01/18 02:04:32;;;;;;;0.10;0.10;;;3.10;99.90;;;;;;4946747;28;20670;-75
2022/01/18 02:06:59;;;;;;;0.17;0.17;;;3.20;99.90;;;;;;4944635;28;20618;-75
2022/01/18 02:09:28;;;;;;;0.10;0.10;;;3.20;99.90;;;;;;4948414;28;20649;-76
2022/01/18 02:11:57;;;;;;;0.10;0.10;;;3.20;99.90;;;;;;4949908;28;20613;-76
2022/01/18 02:14:25;;;;;;;0.13;0.13;;;3.20;99.90;;;;;;4948006;28;20656;-75
2022/01/18 02:22:22;;;;;;;0.10;0.10;;;3.30;99.90;;;;;;4938874;28;20629;-75
2022/01/18 02:24:50;;;;;;;0.10;0.10;;;3.30;99.90;;;;;;4942437;28;20677;-75
2022/01/18 02:27:17;;;;;;;0.10;0.10;;;3.30;99.90;;;;;;4945658;28;20641;-75
2022/01/18 02:29:44;;;;;;;0.10;0.10;;;3.30;99.90;;;;;;4947489;28;20669;-75
2022/01/18 02:32:11;;;;;;;0.13;0.13;;;3.30;99.90;;;;;;4949945;28;20685;-76
2022/01/18 02:34:38;;;;;;;0.10;0.10;;;3.30;99.90;;;;;;4945746;28;20682;-75
2022/01/18 02:37:07;;;;;;;0.10;0.10;;;3.30;99.90;;;;;;4965093;28;20628;-75
2022/01/18 02:39:36;;;;;;;0.10;0.10;;;3.40;99.90;;;;;;4939087;28;20663;-75
2022/01/18 02:42:06;;;;;;;0.10;0.10;;;3.40;99.90;;;;;;4934399;28;20610;-75
2022/01/18 02:44:35;;;;;;;0.10;0.10;;;3.40;99.90;;;;;;4935057;28;20728;-75
2022/01/18 02:47:03;;;;;;;0.10;0.10;;;3.40;99.90;;;;;;4941587;28;20644;-75
2022/01/18 02:49:30;;;;;;;0.20;0.20;;;3.40;99.90;;;;;;4948854;28;20621;-75
2022/01/18 02:51:58;;;;;;;0.10;0.10;;;3.40;99.90;;;;;;4959149;28;20657;-75
2022/01/18 02:54:26;;;;;;;0.10;0.10;;;3.40;99.90;;;;;;4938694;28;20660;-75
2022/01/18 02:56:59;;;;;;;0.10;0.10;;;3.50;99.90;;;;;;4948548;28;20619;-75
2022/01/18 02:59:33;;;;;;;0.10;0.10;;;3.50;99.90;;;;;;4962351;28;20633;-75
2022/01/18 03:04:47;;;;;;;0.10;0.10;;;3.50;99.90;;;;;;4946275;28;20677;-75
2022/01/18 03:07:16;;;;;;;0.10;0.10;;;3.50;99.90;;;;;;4947907;28;20762;-75
2022/01/18 03:09:43;;;;;;;0.10;0.10;;;3.50;99.90;;;;;;4944559;28;20614;-75
2022/01/18 03:12:12;;;;;;;0.10;0.10;;;3.50;99.90;;;;;;4963506;28;20641;-75
2022/01/18 03:14:40;;;;;;;0.10;0.10;;;3.50;99.90;;;;;;4941142;28;20650;-75
2022/01/18 03:17:08;;;;;;;0.10;0.10;;;3.50;99.90;;;;;;4962421;28;21333;-75
2022/01/18 03:19:35;;;;;;;0.10;0.10;;;3.50;99.90;;;;;;4940737;28;20630;-75
2022/01/18 03:22:03;;;;;;;0.10;0.10;;;3.50;99.90;;;;;;4962355;28;20730;-75
2022/01/18 03:30:01;;;;;;;0.10;0.10;;;3.60;99.90;;;;;;4944989;28;20641;-76
2022/01/18 03:32:28;;;;;;;0.10;0.10;;;3.60;99.90;;;;;;4943005;28;20622;-75
2022/01/18 03:34:55;;;;;;;0.10;0.10;;;3.60;99.90;;;;;;4941131;28;20635;-75
2022/01/18 03:37:22;;;;;;;0.10;0.10;;;3.60;99.90;;;;;;4958963;28;20637;-75
2022/01/18 03:39:50;;;;;;;0.10;0.10;;;3.70;99.90;;;;;;4961245;28;20696;-75
2022/01/18 03:42:36;;;;;;;0.10;0.10;;;3.70;99.90;;;;;;4960931;28;20773;-76
2022/01/18 03:45:05;;;;;;;0.17;0.17;;;3.70;99.90;;;;;;4946826;28;20686;-76
2022/01/18 03:47:33;;;;;;;0.10;0.10;;;3.80;99.90;;;;;;4947648;28;20630;-76
2022/01/18 03:50:01;;;;;;;0.10;0.10;;;3.80;99.90;;;;;;4960663;28;21208;-76
2022/01/18 03:52:28;;;;;;;0.10;0.10;;;3.80;99.90;;;;;;4938298;28;20607;-76
2022/01/18 03:54:55;;;;;;;0.10;0.10;;;3.90;99.90;;;;;;4940084;28;20671;-75
2022/01/18 03:57:24;;;;;;;0.10;0.10;;;3.80;99.90;;;;;;4943105;28;20709;-75
2022/01/18 03:59:51;;;;;;;0.10;0.10;;;3.90;99.90;;;;;;4943772;28;20642;-75
2022/01/18 04:02:18;;;;;;;0.07;0.07;;;3.90;99.90;;;;;;4962726;28;20658;-75
2022/01/18 04:04:45;;;;;;;0.10;0.10;;;3.90;99.90;;;;;;4942088;28;20722;-75
2022/01/18 04:07:12;;;;;;;0.10;0.10;;;3.90;99.90;;;;;;4961829;28;20626;-75
2022/01/18 04:09:40;;;;;;;0.10;0.10;;;3.90;99.90;;;;;;4944734;28;21060;-75
2022/01/18 04:12:08;;;;;;;0.10;0.10;;;3.90;99.90;;;;;;4941908;28;20614;-75
2022/01/18 04:14:36;;;;;;;0.10;0.10;;;3.90;99.90;;;;;;4971531;28;20654;-75
2022/01/18 04:17:10;;;;;;;0.10;0.10;;;3.90;99.90;;;;;;4941557;28;20617;-75
2022/01/18 04:28:02;;;;;;;0.10;0.10;;;3.90;99.90;;;;;;4960990;28;21189;-75
2022/01/18 04:30:30;;;;;;;0.10;0.10;;;3.90;99.90;;;;;;4979070;28;20628;-75
2022/01/18 04:32:57;;;;;;;0.10;0.10;;;3.90;99.90;;;;;;4945440;28;20677;-75
2022/01/18 04:35:24;;;;;;;0.10;0.10;;;3.90;99.90;;;;;;4940440;28;20654;-75
2022/01/18 04:37:51;;;;;;;0.10;0.10;;;3.90;99.90;;;;;;4940948;28;20717;-75
2022/01/18 04:40:25;;;;;;;0.10;0.10;;;3.90;99.90;;;;;;4959230;28;20638;-75
2022/01/18 04:43:08;;;;;;;0.10;0.10;;;3.90;99.90;;;;;;4943300;28;20610;-75
2022/01/18 04:48:27;;;;;;;0.10;0.10;;;3.90;99.90;;;;;;4946626;28;20610;-75
2022/01/18 04:50:55;;;;;;;0.10;0.10;;;4.00;99.90;;;;;;4936361;28;20639;-75
2022/01/18 04:53:22;;;;;;;0.13;0.13;;;4.00;99.90;;;;;;4942691;28;21362;-75
2022/01/18 04:55:54;;;;;;;0.10;0.10;;;4.00;99.90;;;;;;4939954;28;20641;-75
2022/01/18 04:58:21;;;;;;;0.10;0.10;;;4.00;99.90;;;;;;4939617;28;20654;-76
2022/01/18 05:00:50;;;;;;;0.10;0.10;;;4.10;99.90;;;;;;4944298;28;20630;-76
2022/01/18 05:03:17;;;;;;;0.10;0.10;;;4.10;99.90;;;;;;4962212;28;20678;-75
2022/01/18 05:05:45;;;;;;;0.10;0.10;;;4.10;99.90;;;;;;4970919;28;20799;-76
2022/01/18 05:08:14;;;;;;;0.10;0.10;;;4.10;99.90;;;;;;4959356;28;20622;-75
2022/01/18 05:10:42;;;;;;;0.10;0.10;;;4.20;99.90;;;;;;4937890;28;20633;-75
2022/01/18 05:13:21;;;;;;;0.10;0.10;;;4.10;99.90;;;;;;4940666;28;20656;-75
2022/01/18 05:15:58;;;;;;;0.10;0.10;;;4.20;99.90;;;;;;4938673;28;20737;-75
2022/01/18 05:21:24;;;;;;;0.10;0.10;;;4.20;99.90;;;;;;4941466;28;20607;-76
2022/01/18 05:23:50;;;;;;;0.10;0.10;;;4.30;99.90;;;;;;4943853;28;20622;-75
2022/01/18 05:26:17;;;;;;;0.10;0.10;;;4.30;99.90;;;;;;4946477;28;20687;-76
2022/01/18 05:28:44;;;;;;;0.10;0.10;;;4.30;99.90;;;;;;4948792;28;20654;-75
2022/01/18 05:31:13;;;;;;;0.10;0.10;;;4.30;99.90;;;;;;4964046;28;20653;-76
2022/01/18 05:33:42;;;;;;;0.10;0.10;;;4.40;99.90;;;;;;4939342;28;20623;-78
2022/01/18 05:36:09;;;;;;;0.10;0.10;;;4.40;99.90;;;;;;4962337;28;20653;-77
2022/01/18 05:38:37;;;;;;;0.10;0.10;;;4.40;99.90;;;;;;4944566;28;21051;-76
2022/01/18 05:41:05;;;;;;;0.10;0.10;;;4.40;99.90;;;;;;4941883;28;20646;-77
2022/01/18 05:43:32;;;;;;;0.10;0.10;;;4.50;99.90;;;;;;4961622;28;20628;-77
2022/01/18 05:45:59;;;;;;;0.10;0.10;;;4.50;99.90;;;;;;4937569;28;20671;-77
2022/01/18 05:48:27;;;;;;;0.10;0.10;;;4.50;99.90;;;;;;4944846;28;20663;-77
2022/01/18 05:50:59;;;;;;;0.10;0.10;;;4.50;99.90;;;;;;4976188;28;20634;-76
2022/01/18 05:53:26;;;;;;;0.10;0.10;;;4.60;99.90;;;;;;4950775;28;20622;-76
2022/01/18 05:55:53;;;;;;;0.10;0.10;;;4.60;99.90;;;;;;4947719;28;20629;-76
2022/01/18 05:58:21;;;;;;;0.10;0.10;;;4.60;99.90;;;;;;4943911;28;20695;-76
2022/01/18 06:00:52;;;;;;;0.20;0.20;;;4.60;99.90;;;;;;4946247;28;21001;-77
2022/01/18 06:03:27;;;;;;;0.10;0.10;;;4.60;99.90;;;;;;4940909;29;20690;-77
2022/01/18 06:08:49;;;;;;;0.10;0.10;;;4.60;99.90;;;;;;4914076;28;20622;-80
2022/01/18 06:11:16;;;;;;;0.10;0.10;;;4.60;99.90;;;;;;4948846;28;20630;-78
2022/01/18 06:13:43;;;;;;;0.10;0.10;;;4.60;99.90;;;;;;4964847;28;20625;-76
2022/01/18 06:16:12;;;;;;;0.10;0.10;;;4.60;99.90;;;;;;4946608;28;20649;-76
2022/01/18 06:18:39;;;;;;;0.10;0.10;;;4.60;99.90;;;;;;4947837;28;20634;-76
2022/01/18 06:21:07;;;;;;;0.10;0.10;;;4.60;99.90;;;;;;4963256;28;20729;-76
2022/01/18 06:23:34;;;;;;;0.10;0.10;;;4.60;99.90;;;;;;4959077;28;20732;-77
2022/01/18 06:26:02;;;;;;;0.10;0.10;;;4.70;99.90;;;;;;4943932;28;20674;-76
2022/01/18 06:28:31;;;;;;;0.10;0.10;;;4.70;99.90;;;;;;4948903;28;20614;-77
2022/01/18 06:30:58;;;;;;;0.10;0.10;;;4.70;99.90;;;;;;4946874;28;20634;-76
2022/01/18 06:33:25;;;;;;;0.10;0.10;;;4.70;99.90;;;;;;4944855;28;20618;-76
2022/01/18 06:35:52;;;;;;;0.10;0.10;;;4.70;99.90;;;;;;4939118;28;20769;-76
2022/01/18 06:38:21;;;;;;;0.10;0.10;;;4.70;99.90;;;;;;4942065;28;20717;-76
2022/01/18 06:40:49;;;;;;;0.10;0.10;;;4.70;99.90;;;;;;4961676;28;20650;-76
2022/01/18 06:43:16;;;;;;;0.10;0.10;;;4.70;99.90;;;;;;4959901;28;20631;-76
2022/01/18 06:45:43;;;;;;;0.10;0.10;;;4.70;99.90;;;;;;4943762;28;20665;-76
2022/01/18 06:48:10;;;;;;;0.10;0.10;;;4.70;99.90;;;;;;4946235;28;20626;-76
2022/01/18 06:50:37;;;;;;;0.10;0.10;;;4.70;99.90;;;;;;4946972;28;20706;-76
2022/01/18 06:53:05;;;;;;;0.10;0.10;;;4.70;99.90;;;;;;4955864;28;20634;-75
2022/01/18 06:55:34;;;;;;;0.10;0.10;;;4.70;99.90;;;;;;4947914;28;20648;-76
2022/01/18 06:58:01;;;;;;;0.10;0.10;;;4.70;99.90;;;;;;4940377;28;20697;-76
2022/01/18 07:00:28;;;;;;;0.10;0.10;;;4.80;99.90;;;;;;4947985;28;20641;-76
2022/01/18 07:02:55;;;;;;;0.10;0.10;;;4.80;99.90;;;;;;4944310;28;20623;-76
2022/01/18 07:05:22;;;;;;;0.10;0.10;;;4.80;99.90;;;;;;4942166;28;20674;-76
2022/01/18 07:07:49;;;;;;;0.10;0.10;;;4.80;99.90;;;;;;4947451;28;21213;-76
2022/01/18 07:10:16;;;;;;;0.10;0.10;;;4.80;99.90;;;;;;4961098;28;20641;-76
2022/01/18 07:12:45;;;;;;;0.10;0.10;;;4.80;99.90;;;;;;4940877;28;20666;-77
2022/01/18 07:15:12;;;;;;;0.10;0.10;;;4.80;99.90;;;;;;4962017;28;20685;-76
2022/01/18 07:17:40;;;;;;;0.10;0.10;;;4.80;99.90;;;;;;4941187;28;20714;-76
2022/01/18 07:20:10;;;;;;;0.10;0.10;;;4.80;99.90;;;;;;4957724;28;20637;-76
2022/01/18 07:22:37;;;;;;;0.10;0.10;;;4.80;99.90;;;;;;4941060;28;20634;-76
2022/01/18 07:25:10;;;;;;;0.10;0.10;;;4.80;99.90;;;;;;4932496;28;20668;-76
2022/01/18 07:27:38;;;;;;;0.10;0.10;;;4.80;99.90;;;;;;4944120;28;20625;-76
2022/01/18 07:30:08;;;;;;;0.10;0.10;;;4.80;99.90;;;;;;4959290;28;20650;-76
2022/01/18 07:32:35;;;;;;;0.10;0.10;;;4.80;99.90;;;;;;4942355;28;20614;-76
2022/01/18 07:35:03;;;;;;;0.10;0.10;;;4.80;99.90;;;;;;4937173;28;20705;-76
2022/01/18 07:37:32;;;;;;;0.10;0.10;;;4.80;99.90;;;;;;4943997;28;20646;-76
2022/01/18 07:40:00;;;;;;;0.10;0.10;;;4.80;99.90;;;;;;4959428;28;20721;-76
2022/01/18 07:42:29;;;;;;;0.10;0.10;;;4.90;99.90;;;;;;4960931;28;20677;-76
2022/01/18 07:44:57;;;;;;;0.10;0.10;;;4.90;99.90;;;;;;4940561;28;20658;-76
2022/01/18 07:47:27;;;;;;;0.10;0.10;;;4.90;99.90;;;;;;4941841;28;20710;-76
2022/01/18 07:49:55;;;;;;;0.10;0.10;;;4.90;99.90;;;;;;4975771;28;20625;-76
2022/01/18 07:52:24;;;;;;;0.10;0.10;;;4.90;99.90;;;;;;4941384;28;20630;-76
2022/01/18 07:54:51;;;;;;;0.10;0.10;;;4.90;99.90;;;;;;4970037;28;20670;-76
2022/01/18 07:57:20;;;;;;;0.10;0.10;;;4.90;99.90;;;;;;4943873;28;20613;-76
2022/01/18 07:59:47;;;;;;;0.13;0.13;;;4.90;99.90;;;;;;4960204;28;20975;-76
2022/01/18 08:02:14;;;;;;;0.10;0.10;;;5.00;99.90;;;;;;4938639;28;20637;-76
2022/01/18 08:04:42;;;;;;;0.10;0.10;;;5.00;99.90;;;;;;4941319;28;20637;-76
2022/01/18 08:07:10;;;;;;;0.10;0.10;;;5.00;99.90;;;;;;4937260;28;20665;-76
2022/01/18 08:09:37;;;;;;;0.10;0.10;;;5.00;99.90;;;;;;4962364;28;20626;-76
2022/01/18 08:12:05;;;;;;;0.10;0.10;;;5.00;99.90;;;;;;4956673;28;20662;-76
2022/01/18 08:14:32;;;;;;;0.10;0.10;;;5.10;99.90;;;;;;4934106;28;20758;-76
2022/01/18 08:17:04;;;;;;;0.10;0.10;;;5.10;99.90;;;;;;4960720;28;20632;-76
2022/01/18 08:19:34;;;;;;;0.10;0.10;;;5.10;99.90;;;;;;4934011;28;20685;-76
2022/01/18 08:22:03;;;;;;;0.10;0.10;;;5.10;99.90;;;;;;4944379;28;20610;-76
2022/01/18 08:24:30;;;;;;;0.10;0.10;;;5.10;99.90;;;;;;4929889;28;20670;-76
2022/01/18 08:26:58;;;;;;;0.10;0.10;;;5.20;99.90;;;;;;4946477;28;20669;-76
2022/01/18 08:29:25;;;;;;;0.10;0.10;;;5.20;99.90;;;;;;4943718;28;20692;-76
2022/01/18 08:31:52;;;;;;;0.10;0.10;;;5.20;99.90;;;;;;4959038;28;20623;-76
2022/01/18 08:34:19;;;;;;;0.10;0.10;;;5.20;99.90;;;;;;4936714;28;20690;-76
2022/01/18 08:36:46;;;;;;;0.10;0.10;;;5.30;99.90;;;;;;4973649;28;20746;-76
2022/01/18 08:39:15;;;;;;;0.10;0.10;;;5.30;99.90;;;;;;4957248;28;22153;-76
2022/01/18 08:41:41;;;;;;;0.00;0.00;;;5.30;99.90;;;;;;4937190;28;20635;-76
2022/01/18 08:44:09;;;;;;;0.10;0.10;;;5.30;99.90;;;;;;4956765;28;20761;-76
2022/01/18 08:46:36;;;;;;;0.10;0.10;;;5.40;99.90;;;;;;4936765;28;20662;-76
2022/01/18 08:49:06;;;;;;;0.10;0.10;;;5.40;99.90;;;;;;4937306;28;20703;-76
2022/01/18 08:51:33;;;;;;;0.10;0.10;;;5.40;99.90;;;;;;4935011;28;20737;-76
2022/01/18 08:54:00;;;;;;;0.10;0.10;;;5.40;99.90;;;;;;4941792;28;20610;-76
2022/01/18 08:56:29;;;;;;;0.10;0.10;;;5.50;99.90;;;;;;4937396;28;20620;-77
2022/01/18 08:58:58;;;;;;;0.10;0.10;;;5.50;99.90;;;;;;4942489;28;20630;-76
2022/01/18 09:01:25;;;;;;;0.10;0.10;;;5.50;99.90;;;;;;4947296;28;20622;-76
2022/01/18 09:03:52;;;;;;;0.10;0.10;;;5.60;99.90;;;;;;4936630;28;20627;-76
2022/01/18 09:06:22;;;;;;;0.10;0.10;;;5.60;99.90;;;;;;4942593;28;20666;-77
2022/01/18 09:08:55;;;;;;;0.10;0.10;;;5.60;99.90;;;;;;4936882;28;20607;-76
2022/01/18 09:11:23;;;;;;;0.10;0.10;;;5.60;99.90;;;;;;4943159;28;20607;-76
2022/01/18 09:13:53;;;;;;;0.10;0.10;;;5.60;99.90;;;;;;4938888;28;20607;-77
2022/01/18 09:16:20;;;;;;;0.10;0.10;;;5.70;99.90;;;;;;4942521;28;20610;-76
2022/01/18 09:18:47;;;;;;;0.00;0.00;;;5.70;99.90;;;;;;4935289;28;20630;-77
2022/01/18 09:21:14;;;;;;;0.10;0.10;;;5.70;99.90;;;;;;4943266;28;20767;-76
2022/01/18 09:23:42;;;;;;;0.10;0.10;;;5.70;99.90;;;;;;4940030;28;20626;-76
2022/01/18 09:26:09;;;;;;;0.10;0.10;;;5.80;99.90;;;;;;4945397;28;20646;-77
2022/01/18 09:28:37;;;;;;;0.10;0.10;;;5.80;99.90;;;;;;4940267;28;20626;-76
2022/01/18 09:31:05;;;;;;;0.10;0.10;;;5.80;99.90;;;;;;4958144;28;20671;-76
2022/01/18 09:33:32;;;;;;;0.10;0.10;;;5.90;99.90;;;;;;4937350;28;20649;-76
2022/01/18 09:35:59;;;;;;;0.10;0.10;;;5.90;99.90;;;;;;4944529;28;20662;-76
2022/01/18 09:38:26;;;;;;;0.10;0.10;;;5.90;99.90;;;;;;4946917;28;20625;-76
2022/01/18 09:40:54;;;;;;;0.10;0.10;;;5.90;99.90;;;;;;4944065;28;20618;-76
2022/01/18 09:43:20;;;;;;;0.10;0.10;;;5.90;99.90;;;;;;4940377;28;20635;-76
2022/01/18 09:45:48;;;;;;;0.10;0.10;;;5.90;99.90;;;;;;4940123;28;20669;-76
2022/01/18 09:48:17;;;;;;;0.10;0.10;;;5.90;99.90;;;;;;4959628;28;20637;-76
2022/01/18 09:50:45;;;;;;;0.10;0.10;;;5.90;99.90;;;;;;4940551;28;20619;-76
2022/01/18 09:53:14;;;;;;;0.10;0.10;;;6.00;99.90;;;;;;4941321;28;20610;-76
2022/01/18 09:55:42;;;;;;;0.10;0.10;;;6.00;99.90;;;;;;4940638;28;20645;-76
2022/01/18 09:58:10;;;;;;;0.10;0.10;;;6.00;99.90;;;;;;4966831;28;20685;-76
2022/01/18 10:00:39;;;;;;;0.10;0.10;;;6.10;99.90;;;;;;4933048;28;20674;-76
2022/01/18 10:03:10;;;;;;;0.10;0.10;;;6.10;99.90;;;;;;4954499;28;20658;-76
2022/01/18 10:05:39;;;;;;;0.10;0.10;;;6.10;99.90;;;;;;4937796;28;20653;-76
2022/01/18 10:08:09;;;;;;;0.10;0.10;;;6.10;99.90;;;;;;4936242;28;20634;-76
2022/01/18 10:10:42;;;;;;;0.10;0.10;;;6.20;99.90;;;;;;4969862;28;20627;-76
2022/01/18 10:13:15;;;;;;;0.10;0.10;;;6.20;99.90;;;;;;4938884;28;20664;-76
2022/01/18 10:15:58;;;;;;;0.10;0.10;;;6.20;99.90;;;;;;4943467;28;20701;-76
2022/01/18 10:18:35;;;;;;;0.10;0.10;;;6.30;99.90;;;;;;4931048;28;20651;-76
2022/01/18 10:21:06;;;;;;;0.10;0.10;;;6.30;99.90;;;;;;4943378;28;20616;-76
2022/01/18 10:23:33;;;;;;;0.10;0.10;;;6.30;99.90;;;;;;4936532;28;20708;-76
2022/01/18 10:26:16;;;;;;;0.17;0.17;;;6.40;99.90;;;;;;4941976;28;21264;-76
2022/01/18 10:28:43;;;;;;;0.07;0.07;;;6.50;99.90;;;;;;4938648;28;20661;-76
2022/01/18 10:31:55;;;;;;;;;;;;;;;;;;;;;
2022/01/18 10:37:29;;;;;;;0.00;0.00;;;6.70;99.90;;;;;;4948511;28;20610;-76
2022/01/18 10:39:58;;;;;;;0.10;0.10;;;6.70;99.90;;;;;;4943018;28;21216;-77
2022/01/18 10:42:30;;;;;;;0.10;0.10;;;6.70;99.90;;;;;;4944825;28;20626;-76
2022/01/18 10:45:05;;;;;;;0.10;0.10;;;6.70;99.90;;;;;;4946271;28;20654;-76
2022/01/18 10:47:34;;;;;;;0.00;0.00;;;6.80;99.90;;;;;;4944971;28;21077;-77
2022/01/18 10:50:09;;;;;;;0.10;0.10;;;6.80;99.90;;;;;;4970741;28;20624;-77
2022/01/18 10:52:37;;;;;;;0.10;0.10;;;6.80;99.90;;;;;;4949481;28;21259;-76
2022/01/18 10:55:07;;;;;;;0.10;0.10;;;6.80;99.90;;;;;;4961393;28;20656;-77
2022/01/18 10:57:54;;;;;;;0.10;0.10;;;;;;;;;;4945745;28;20597;-77
2022/01/18 11:00:22;;;;;;;0.10;0.10;;;;;;;;;;4948585;28;20634;-77
2022/01/18 11:02:50;;;;;;;0.10;0.10;;;;;;;;;;4942369;28;20614;-76
2022/01/18 11:05:18;;;;;;;0.10;0.10;;;;;;;;;;4957764;28;21353;-77
2022/01/18 11:07:49;;;;;;;0.10;0.10;;;;;;;;;;4947213;28;21054;-76
2022/01/18 11:10:17;;;;;;;0.10;0.10;;;;;;;;;;4946688;28;20694;-76
2022/01/18 11:12:46;;;;;;;0.10;0.10;;;;;;;;;;4937488;28;20625;-76
2022/01/18 11:15:18;;;;;;;0.10;0.10;;;;;;;;;;4932775;28;20680;-74
2022/01/18 11:17:50;;;;;;;0.10;0.10;;;;;;;;;;4934187;28;20618;-75
2022/01/18 11:20:18;;;;;;;0.10;0.10;;;;;;;;;;4942085;28;20638;-75
2022/01/18 11:22:48;;;;;;;0.00;0.00;;;;;;;;;;4934587;28;20650;-75
2022/01/18 11:25:16;;;;;;;0.10;0.10;;;;;;;;;;4956830;28;20666;-75
2022/01/18 11:27:48;;;;;;;0.10;0.10;;;;;;;;;;4943928;28;20659;-75
2022/01/18 11:30:16;;;;;;;0.10;0.10;;;;;;;;;;4943831;28;20744;-75
2022/01/18 11:32:43;;;;;;;0.00;0.00;;;;;;;;;;4943096;28;20622;-75
2022/01/18 11:35:12;;;;;;;0.10;0.10;;;;;;;;;;4956919;28;20670;-75
2022/01/18 11:37:45;;;;;;;0.10;0.10;;;;;;;;;;4944005;28;20607;-75
2022/01/18 11:40:15;;;;;;;0.10;0.10;;;;;;;;;;4973035;28;20626;-75
2022/01/18 11:42:49;;;;;;;0.10;0.10;;;;;;;;;;4944352;28;20618;-75
2022/01/18 11:45:30;;;;;;;0.00;0.00;;;;;;;;;;4933457;28;20659;-75
2022/01/18 11:48:01;;;;;;;0.10;0.10;;;;;;;;;;4973142;28;20717;-75
2022/01/18 11:50:30;;;;;;;0.10;0.10;;;;;;;;;;4933503;28;20614;-75
2022/01/18 11:53:15;;;;;;;0.10;0.10;;;;;;;;;;4942079;28;20610;-75
2022/01/18 11:55:45;;;;;;;0.10;0.10;;;;;;;;;;4942784;28;20676;-75
2022/01/18 11:58:13;;;;;;;0.10;0.10;;;;;;;;;;4938525;28;20617;-75
2022/01/18 12:00:51;;;;;;;0.10;0.10;;;;;;;;;;4937836;28;20638;-75
2022/01/18 12:03:20;;;;;;;0.10;0.10;;;;;;;;;;4942869;28;20737;-75
2022/01/18 12:05:48;;;;;;;0.10;0.10;;;;;;;;;;4937652;28;20827;-75
2022/01/18 12:08:47;;;;;;;0.10;0.10;;;;;;;;;;4957510;28;21256;-75
2022/01/18 12:11:36;;;;;;;0.10;0.10;;;;;;;;;;4938744;28;20654;-75
2022/01/18 12:14:05;;;;;;;0.10;0.10;;;;;;;;;;4943526;28;20705;-75
2022/01/18 12:16:33;;;;;;;0.10;0.10;;;;;;;;;;4943355;28;20622;-75
2022/01/18 12:19:08;;;;;;;0.10;0.10;;;;;;;;;;4940071;28;20626;-75
2022/01/18 12:21:36;;;;;;;0.10;0.10;;;;;;;;;;4943712;28;20629;-75
2022/01/18 12:24:18;;;;;;;0.10;0.10;;;;;;;;;;4954496;28;20674;-75
2022/01/18 12:26:49;;;;;;;0.00;0.00;;;;;;;;;;4940809;28;20683;-75
2022/01/18 12:32:22;;;;;;;0.10;0.10;;;;;;;;;;4931971;28;20769;-76
2022/01/18 12:34:51;;;;;;;0.10;0.10;;;;;;;;;;4939227;28;21391;-75
2022/01/18 12:37:35;;;;;;;0.00;0.00;;;;;;;;;;4939711;28;20719;-75
2022/01/18 12:40:07;;;;;;;0.10;0.10;;;;;;;;;;4969826;28;20638;-75
2022/01/18 12:45:23;;;;;;;0.10;0.10;;;;;;;;;;4933402;28;20677;-75
2022/01/18 12:47:52;;;;;;;0.10;0.10;;;;;;;;;;4942500;28;20665;-75
2022/01/18 12:50:22;;;;;;;0.10;0.10;;;;;;;;;;4935135;28;20614;-75
2022/01/18 12:52:49;;;;;;;0.10;0.10;;;;;;;;;;4937081;28;20603;-75
2022/01/18 12:55:30;;;;;;;0.10;0.10;;;;;;;;;;4941567;28;20668;-75
2022/01/18 12:58:09;;;;;;;0.10;0.10;;;;;;;;;;4938572;28;20705;-75
2022/01/18 13:00:46;;;;;;;0.10;0.10;;;;;;;;;;4935697;28;20630;-75
2022/01/18 13:03:18;;;;;;;0.00;0.00;;;;;;;;;;4938551;28;20626;-76
2022/01/18 13:05:47;;;;;;;0.10;0.10;;;;;;;;;;4937677;28;20665;-75
2022/01/18 13:08:15;;;;;;;0.10;0.10;;;;;;;;;;4938778;28;20778;-75
2022/01/18 13:10:44;;;;;;;0.10;0.10;;;;;;;;;;4938503;28;20653;-75
2022/01/18 13:13:15;;;;;;;0.10;0.10;;;;;;;;;;4936411;28;20611;-75
2022/01/18 13:15:51;;;;;;;0.10;0.10;;;;;;;;;;4940586;28;20757;-75
2022/01/18 13:23:55;;;;;;;0.10;0.10;;;;;;;;;;4958229;28;20652;-75
2022/01/18 13:26:29;;;;;;;0.10;0.10;;;;;;;;;;4939656;28;20619;-75
2022/01/18 13:29:09;;;;;;;0.10;0.10;;;;;;;;;;4936964;28;20662;-75
2022/01/18 13:31:37;;;;;;;0.07;0.07;;;;;;;;;;4932651;28;20638;-76
2022/01/18 13:34:05;;;;;;;0.10;0.10;;;;;;;;;;4930422;28;20668;-75
2022/01/18 13:36:33;;;;;;;0.10;0.10;;;;;;;;;;4937742;28;20614;-75
2022/01/18 13:39:16;;;;;;;0.10;0.10;;;;;;;;;;4934201;28;20625;-75
2022/01/18 13:41:43;;;;;;;0.10;0.10;;;;;;;;;;4969098;28;20641;-76
2022/01/18 13:44:12;;;;;;;0.00;0.00;;;;;;;;;;4932441;28;20681;-75
2022/01/18 13:46:40;;;;;;;0.10;0.10;;;;;;;;;;4969699;28;20630;-75
2022/01/18 13:49:07;;;;;;;0.10;0.10;;;;;;;;;;4941600;28;20705;-75
2022/01/18 13:51:35;;;;;;;0.10;0.10;;;;;;;;;;4938026;28;20618;-75
2022/01/18 13:54:05;;;;;;;0.00;0.00;;;;;;;;;;4960244;28;20712;-75
2022/01/18 13:56:32;;;;;;;0.10;0.10;;;;;;;;;;4936797;28;20619;-75
2022/01/18 13:59:01;;;;;;;0.10;0.10;;;;;;;;;;4963079;28;20650;-75
2022/01/18 14:01:34;;;;;;;0.10;0.10;;;;;;;;;;4961114;28;20637;-75
2022/01/18 14:04:03;;;;;;;0.10;0.10;;;;;;;;;;4955356;28;20684;-75
2022/01/18 14:06:36;;;;;;;0.10;0.10;;;;;;;;;;4946801;28;20649;-75
2022/01/18 14:09:03;;;;;;;0.00;0.00;;;;;;;;;;4943766;28;20684;-76
2022/01/18 14:11:34;;;;;;;0.10;0.10;;;;;;;;;;4937957;28;21288;-75
2022/01/18 14:14:04;;;;;;;0.10;0.10;;;;;;;;;;4938288;28;20654;-75
2022/01/18 14:16:33;;;;;;;0.10;0.10;;;;;;;;;;4942230;28;20717;-75
2022/01/18 14:19:05;;;;;;;0.00;0.00;;;;;;;;;;4959152;28;20630;-75
2022/01/18 14:21:36;;;;;;;0.10;0.10;;;;;;;;;;4940275;28;20635;-76
2022/01/18 14:24:21;;;;;;;0.00;0.00;;;;;;;;;;4958237;28;21090;-76
2022/01/18 14:27:02;;;;;;;0.10;0.10;;;;;;;;;;4943712;28;20720;-76
2022/01/18 14:29:46;;;;;;;0.10;0.10;;;;;;;;;;4971250;28;20652;-76
2022/01/18 14:32:16;;;;;;;0.10;0.10;;;;;;;;;;4940600;28;21279;-76
2022/01/18 14:34:45;;;;;;;0.10;0.10;;;;;;;;;;4944575;28;20768;-76
2022/01/18 14:37:14;;;;;;;0.10;0.10;;;;;;;;;;4936203;28;20716;-75
2022/01/18 14:39:57;;;;;;;0.10;0.10;;;;;;;;;;4933310;28;20618;-76
2022/01/18 14:42:28;;;;;;;0.00;0.00;;;;;;;;;;4955412;28;20649;-76
2022/01/18 14:45:03;;;;;;;0.10;0.10;;;;;;;;;;4961802;28;20658;-76
2022/01/18 14:47:33;;;;;;;0.10;0.10;;;;;;;;;;4935498;28;20661;-75
2022/01/18 14:50:01;;;;;;;0.10;0.10;;;;;;;;;;4943500;28;20626;-76